Dades meteomassalio
Diari Summary for Febrer 21, 2018 Units:  English    Metric   Both
« Previous Day
Next Day »
Diari Semanal Mensual Anual Personalitzat
  Maxima: Minima: Mijana:
Temperatura: TemperatureC °F 3.3 °F 8.3 °F
Rosada: DewpointC °F -4.4 °F 1.1 °F
Humitat: Humidity % 44 % 61 %
Velocitat del vent: WindSpeedKMH mph 18.5 mph 30.2 mph
Racha vent: WindSpeedGustKMH mph - -
Vent:- - NW
Pressio: PressurehPa in 1009.4 in -
Pluja: 0.0 in    
Historical Graphs
 
 
Tabular Data for Febrer 21, 2018
Time Temperature Dew Point Pressure Wind Wind Speed Wind Gust Humidity Rainfall Rate (Hourly) solar Conditions
TemperatureC °F DewpointC °F PressurehPa in Calm     Humidity % HourlyPrecipMM in SolarRadiationWatts/m^2 W/m2 Conditions
00:03 7.8 °F 3.2 °F 1015.1 in NW 31.5 mph 31.5 mph 73 % 0.0 in 0.0 W/m2 CLR
00:08 7.8 °F 3.2 °F 1015.1 in WNW 25.9 mph 25.9 mph 73 % 0.0 in 0.0 W/m2 CLR
00:13 7.8 °F 3.2 °F 1015.5 in WNW 22.2 mph 22.2 mph 73 % 0.0 in 0.0 W/m2 CLR
00:18 7.8 °F 3.2 °F 1015.5 in NW 20.9 mph 20.9 mph 73 % 0.0 in 0.0 W/m2 CLR
00:23 7.8 °F 3.4 °F 1015.1 in West 18.5 mph 18.5 mph 74 % 0.0 in 0.0 W/m2 CLR
00:28 7.8 °F 3.4 °F 1015.1 in NW 31.5 mph 31.5 mph 74 % 0.0 in 0.0 W/m2 CLR
00:33 7.8 °F 3.4 °F 1015.1 in WNW 25.9 mph 25.9 mph 74 % 0.0 in 0.0 W/m2 CLR
00:38 7.8 °F 3.4 °F 1015.1 in WNW 18.5 mph 18.5 mph 74 % 0.0 in 0.0 W/m2 CLR
00:43 7.8 °F 3.4 °F 1015.1 in WNW 29.6 mph 29.6 mph 74 % 0.0 in 0.0 W/m2 CLR
00:48 7.8 °F 3.4 °F 1015.1 in NW 29.0 mph 29.0 mph 74 % 0.0 in 0.0 W/m2 CLR
00:53 7.2 °F 2.9 °F 1015.1 in NW 18.5 mph 18.5 mph 74 % 0.0 in 0.0 W/m2 CLR
00:58 7.8 °F 3.4 °F 1015.1 in NW 25.9 mph 25.9 mph 74 % 0.0 in 0.0 W/m2 CLR
01:03 7.8 °F 3.4 °F 1014.8 in WNW 22.2 mph 22.2 mph 74 % 0.0 in 0.0 W/m2 CLR
01:08 7.8 °F 3.4 °F 1014.8 in NW 29.6 mph 29.6 mph 74 % 0.0 in 0.0 W/m2 CLR
01:13 7.8 °F 3.4 °F 1014.8 in WNW 24.1 mph 24.1 mph 74 % 0.0 in 0.0 W/m2 CLR
01:18 7.2 °F 2.9 °F 1014.4 in WNW 27.8 mph 27.8 mph 74 % 0.0 in 0.0 W/m2 CLR
01:23 7.8 °F 3.4 °F 1014.8 in WNW 18.5 mph 18.5 mph 74 % 0.0 in 0.0 W/m2 CLR
01:28 7.8 °F 3.4 °F 1014.8 in WNW 25.9 mph 25.9 mph 74 % 0.0 in 0.0 W/m2 CLR
01:33 7.8 °F 3.4 °F 1014.4 in WNW 22.2 mph 22.2 mph 74 % 0.0 in 0.0 W/m2 CLR
01:38 7.8 °F 3.4 °F 1014.1 in NNW 30.6 mph 30.6 mph 74 % 0.0 in 0.0 W/m2 CLR
01:43 7.8 °F 3.4 °F 1014.1 in WNW 20.9 mph 20.9 mph 74 % 0.0 in 0.0 W/m2 CLR
01:49 7.2 °F 2.9 °F 1014.1 in NW 24.1 mph 24.1 mph 74 % 0.0 in 0.0 W/m2 CLR
01:54 7.2 °F 2.9 °F 1014.1 in NNW 24.1 mph 24.1 mph 74 % 0.0 in 0.0 W/m2 CLR
01:59 7.8 °F 3.4 °F 1014.1 in WNW 18.5 mph 18.5 mph 74 % 0.0 in 0.0 W/m2 CLR
02:04 7.8 °F 3.4 °F 1014.1 in NW 25.9 mph 25.9 mph 74 % 0.0 in 0.0 W/m2 CLR
02:09 7.8 °F 3.4 °F 1014.1 in WNW 18.5 mph 18.5 mph 74 % 0.0 in 0.0 W/m2 CLR
02:14 7.8 °F 3.4 °F 1014.1 in NW 18.5 mph 18.5 mph 74 % 0.0 in 0.0 W/m2 CLR
02:19 8.3 °F 3.9 °F 1014.1 in NW 18.5 mph 18.5 mph 74 % 0.0 in 0.0 W/m2 CLR
02:24 8.3 °F 3.9 °F 1013.8 in WNW 37.0 mph 37.0 mph 74 % 0.0 in 0.0 W/m2 CLR
02:29 8.3 °F 3.9 °F 1013.8 in WNW 25.9 mph 25.9 mph 74 % 0.0 in 0.0 W/m2 CLR
02:34 8.3 °F 3.9 °F 1013.8 in WNW 24.1 mph 24.1 mph 74 % 0.0 in 0.0 W/m2 CLR
02:39 8.3 °F 3.9 °F 1013.8 in NW 24.1 mph 24.1 mph 74 % 0.0 in 0.0 W/m2 CLR
02:44 8.3 °F 4.2 °F 1013.8 in NNW 29.6 mph 29.6 mph 75 % 0.0 in 0.0 W/m2 CLR
02:49 8.3 °F 3.9 °F 1013.8 in NW 20.4 mph 20.4 mph 74 % 0.0 in 0.0 W/m2 CLR
02:54 8.3 °F 3.9 °F 1013.8 in NW 18.5 mph 18.5 mph 74 % 0.0 in 0.0 W/m2 CLR
02:59 8.3 °F 3.9 °F 1013.4 in WNW 24.1 mph 24.1 mph 74 % 0.0 in 0.0 W/m2 CLR
03:04 8.3 °F 3.9 °F 1013.4 in NW 24.1 mph 24.1 mph 74 % 0.0 in 0.0 W/m2 CLR
03:09 8.3 °F 4.2 °F 1013.1 in WNW 20.4 mph 20.4 mph 75 % 0.0 in 0.0 W/m2 CLR
03:14 8.3 °F 4.2 °F 1013.1 in NW 20.4 mph 20.4 mph 75 % 0.0 in 0.0 W/m2 CLR
03:19 8.3 °F 4.2 °F 1013.1 in NW 18.5 mph 18.5 mph 75 % 0.0 in 0.0 W/m2 CLR
03:24 8.3 °F 4.2 °F 1013.1 in WNW 19.3 mph 19.3 mph 75 % 0.0 in 0.0 W/m2 CLR
03:29 8.3 °F 4.2 °F 1012.8 in NW 18.5 mph 18.5 mph 75 % 0.0 in 0.0 W/m2 CLR
03:34 8.3 °F 4.2 °F 1012.8 in WNW 24.1 mph 24.1 mph 75 % 0.0 in 0.0 W/m2 CLR
03:39 8.3 °F 4.2 °F 1012.8 in WNW 22.5 mph 22.5 mph 75 % 0.0 in 0.0 W/m2 CLR
03:44 8.3 °F 4.2 °F 1012.8 in NW 24.1 mph 24.1 mph 75 % 0.0 in 0.0 W/m2 CLR
03:49 8.3 °F 4.2 °F 1012.4 in NW 25.7 mph 25.7 mph 75 % 0.0 in 0.0 W/m2 CLR
03:54 8.3 °F 4.2 °F 1012.4 in NNW 33.3 mph 33.3 mph 75 % 0.0 in 0.0 W/m2 CLR
03:59 8.3 °F 4.2 °F 1012.4 in NNW 27.8 mph 27.8 mph 75 % 0.0 in 0.0 W/m2 CLR
04:04 8.3 °F 4.2 °F 1012.4 in NW 33.3 mph 33.3 mph 75 % 0.0 in 0.0 W/m2 CLR
04:09 8.3 °F 4.2 °F 1012.4 in NNW 27.8 mph 27.8 mph 75 % 0.0 in 0.0 W/m2 CLR
04:14 8.3 °F 4.2 °F 1012.4 in NNW 29.6 mph 29.6 mph 75 % 0.0 in 0.0 W/m2 CLR
04:19 8.3 °F 4.2 °F 1012.4 in North 31.5 mph 31.5 mph 75 % 0.0 in 0.0 W/m2 CLR
04:24 8.3 °F 4.2 °F 1012.4 in NNW 18.5 mph 18.5 mph 75 % 0.0 in 0.0 W/m2 CLR
04:29 8.3 °F 4.2 °F 1012.4 in NNW 35.2 mph 35.2 mph 75 % 0.0 in 0.0 W/m2 CLR
04:34 8.3 °F 4.2 °F 1012.1 in North 31.5 mph 31.5 mph 75 % 0.0 in 0.0 W/m2 CLR
04:39 8.3 °F 4.2 °F 1012.1 in North 29.0 mph 29.0 mph 75 % 0.0 in 0.0 W/m2 CLR
04:44 8.3 °F 4.2 °F 1012.1 in NNW 31.5 mph 31.5 mph 75 % 0.0 in 0.0 W/m2 CLR
04:49 8.3 °F 4.2 °F 1011.7 in NNW 31.5 mph 31.5 mph 75 % 0.0 in 0.0 W/m2 CLR
04:54 8.3 °F 3.9 °F 1012.1 in NNW 31.5 mph 31.5 mph 74 % 0.0 in 0.0 W/m2 CLR
04:59 8.3 °F 3.9 °F 1012.1 in NW 27.8 mph 27.8 mph 74 % 0.0 in 0.0 W/m2 CLR
05:04 8.3 °F 4.2 °F 1012.1 in NW 29.6 mph 29.6 mph 75 % 0.0 in 0.0 W/m2 CLR
05:09 8.3 °F 4.2 °F 1012.1 in NW 29.6 mph 29.6 mph 75 % 0.0 in 0.0 W/m2 CLR
05:14 8.3 °F 4.2 °F 1012.1 in North 22.2 mph 22.2 mph 75 % 0.0 in 0.0 W/m2 CLR
05:19 8.3 °F 4.2 °F 1012.1 in NW 18.5 mph 18.5 mph 75 % 0.0 in 0.0 W/m2 CLR
05:24 8.3 °F 4.2 °F 1012.1 in NNW 35.4 mph 35.4 mph 75 % 0.0 in 0.0 W/m2 CLR
05:29 8.3 °F 4.2 °F 1011.7 in North 31.5 mph 31.5 mph 75 % 0.0 in 0.0 W/m2 CLR
05:34 8.3 °F 4.2 °F 1011.7 in NNW 43.4 mph 43.4 mph 75 % 0.0 in 0.0 W/m2 CLR
05:39 7.8 °F 3.6 °F 1011.4 in NNW 50.0 mph 50.0 mph 75 % 0.0 in 0.0 W/m2 CLR
05:44 7.8 °F 3.8 °F 1011.4 in NNW 40.7 mph 40.7 mph 76 % 0.0 in 0.0 W/m2 CLR
05:49 7.8 °F 3.8 °F 1011.7 in NNW 48.1 mph 48.1 mph 76 % 0.0 in 0.0 W/m2 CLR
05:54 8.3 °F 4.3 °F 1011.7 in NW 29.6 mph 29.6 mph 76 % 0.0 in 0.0 W/m2 CLR
05:59 8.3 °F 4.2 °F 1011.4 in NNW 31.5 mph 31.5 mph 75 % 0.0 in 0.0 W/m2 CLR
06:04 8.3 °F 4.2 °F 1011.4 in WNW 22.2 mph 22.2 mph 75 % 0.0 in 0.0 W/m2 CLR
06:09 8.3 °F 4.2 °F 1011.4 in NNW 33.3 mph 33.3 mph 75 % 0.0 in 0.0 W/m2 CLR
06:14 8.3 °F 4.2 °F 1011.4 in North 33.3 mph 33.3 mph 75 % 0.0 in 0.0 W/m2 CLR
06:19 8.3 °F 4.3 °F 1011.4 in NNW 38.9 mph 38.9 mph 76 % 0.0 in 0.0 W/m2 CLR
06:24 8.3 °F 4.3 °F 1011.4 in NNW 27.4 mph 27.4 mph 76 % 0.0 in 0.0 W/m2 CLR
06:29 8.3 °F 4.3 °F 1011.1 in North 29.0 mph 29.0 mph 76 % 0.0 in 0.0 W/m2 CLR
06:34 7.8 °F 3.8 °F 1011.1 in North 33.3 mph 33.3 mph 76 % 0.0 in 0.0 W/m2 CLR
06:39 7.8 °F 3.8 °F 1011.1 in NNW 31.5 mph 31.5 mph 76 % 0.0 in 0.0 W/m2 CLR
06:44 7.8 °F 3.8 °F 1011.1 in NW 31.5 mph 31.5 mph 76 % 0.0 in 0.0 W/m2 CLR
06:49 7.8 °F 4.0 °F 1011.1 in NNW 38.9 mph 38.9 mph 77 % 0.0 in 0.0 W/m2 CLR
06:54 7.2 °F 3.4 °F 1011.1 in NNW 25.9 mph 25.9 mph 77 % 0.0 in 0.0 W/m2 CLR
06:59 7.2 °F 3.4 °F 1011.1 in NNW 29.6 mph 29.6 mph 77 % 0.0 in 0.0 W/m2 CLR
07:04 7.2 °F 3.7 °F 1011.1 in NNW 25.9 mph 25.9 mph 78 % 0.0 in 0.0 W/m2 CLR
07:09 7.2 °F 3.7 °F 1011.1 in North 27.8 mph 27.8 mph 78 % 0.0 in 0.0 W/m2 CLR
07:14 6.7 °F 2.9 °F 1011.1 in NNW 40.2 mph 40.2 mph 77 % 0.0 in 0.0 W/m2 CLR
07:19 7.2 °F 3.4 °F 1011.1 in NNW 33.3 mph 33.3 mph 77 % 0.0 in 0.0 W/m2 CLR
07:24 7.2 °F 3.1 °F 1011.1 in North 38.9 mph 38.9 mph 75 % 0.0 in 0.0 W/m2 CLR
07:29 6.7 °F 2.3 °F 1011.4 in North 48.1 mph 48.1 mph 74 % 0.0 in 0.0 W/m2 CLR
07:35 6.7 °F 2.3 °F 1011.1 in North 42.6 mph 42.6 mph 74 % 0.0 in 0.0 W/m2 CLR
07:40 6.7 °F 2.6 °F 1011.4 in North 38.6 mph 38.6 mph 75 % 0.0 in 0.0 W/m2 OVC
07:45 6.7 °F 2.6 °F 1011.4 in North 46.3 mph 46.3 mph 75 % 0.0 in 0.0 W/m2 OVC
07:50 6.7 °F 2.7 °F 1011.1 in North 33.3 mph 33.3 mph 76 % 0.0 in 5.0 W/m2 OVC
07:55 6.7 °F 2.6 °F 1011.1 in North 48.1 mph 48.1 mph 75 % 0.0 in 7.0 W/m2 OVC
08:00 6.7 °F 2.6 °F 1011.1 in NNW 44.4 mph 44.4 mph 75 % 0.0 in 9.0 W/m2 BKN
08:05 6.1 °F 2.0 °F 1011.4 in NNW 48.1 mph 48.1 mph 75 % 0.0 in 12.0 W/m2 BKN
08:10 6.1 °F 2.0 °F 1011.4 in NNW 42.6 mph 42.6 mph 75 % 0.0 in 16.0 W/m2 BKN
08:15 6.1 °F 2.0 °F 1011.4 in NNW 44.4 mph 44.4 mph 75 % 0.0 in 19.0 W/m2 BKN
08:20 6.1 °F 2.0 °F 1011.7 in NNW 31.5 mph 31.5 mph 75 % 0.0 in 30.0 W/m2 BKN
08:25 6.1 °F 2.0 °F 1011.4 in North 40.7 mph 40.7 mph 75 % 0.0 in 30.0 W/m2 BKN
08:30 6.1 °F 2.2 °F 1011.4 in NNW 29.6 mph 29.6 mph 76 % 0.0 in 26.0 W/m2 BKN
08:35 6.1 °F 2.2 °F 1011.4 in NW 25.9 mph 25.9 mph 76 % 0.0 in 35.0 W/m2 SCT
08:40 6.1 °F 2.2 °F 1011.7 in NNW 29.0 mph 29.0 mph 76 % 0.0 in 32.0 W/m2 BKN
08:45 5.6 °F 1.4 °F 1011.4 in NW 31.5 mph 31.5 mph 75 % 0.0 in 37.0 W/m2 BKN
08:50 5.6 °F 1.4 °F 1011.7 in NNW 31.5 mph 31.5 mph 75 % 0.0 in 100.0 W/m2 BKN
08:55 6.1 °F 2.0 °F 1011.4 in NW 25.9 mph 25.9 mph 75 % 0.0 in 118.0 W/m2 FEW
09:00 6.1 °F 1.8 °F 1011.7 in NW 37.0 mph 37.0 mph 74 % 0.0 in 39.0 W/m2 FEW
09:05 6.1 °F 1.8 °F 1011.7 in WNW 25.9 mph 25.9 mph 74 % 0.0 in 134.0 W/m2 FEW
09:10 6.1 °F 1.6 °F 1011.7 in NNW 18.5 mph 18.5 mph 73 % 0.0 in 123.0 W/m2 CLR
09:15 6.1 °F 1.4 °F 1011.4 in NW 25.9 mph 25.9 mph 72 % 0.0 in 116.0 W/m2 CLR
09:20 6.1 °F 1.2 °F 1011.4 in NNW 32.2 mph 32.2 mph 71 % 0.0 in 221.0 W/m2 CLR
09:25 6.7 °F 1.8 °F 1011.4 in NW 32.2 mph 32.2 mph 71 % 0.0 in 237.0 W/m2 CLR
09:30 6.7 °F 1.8 °F 1011.4 in NNW 32.2 mph 32.2 mph 71 % 0.0 in 253.0 W/m2 CLR
09:35 6.7 °F 1.6 °F 1011.7 in NNW 46.3 mph 46.3 mph 70 % 0.0 in 272.0 W/m2 CLR
09:40 6.7 °F 1.6 °F 1011.7 in NNW 37.0 mph 37.0 mph 70 % 0.0 in 287.0 W/m2 CLR
09:45 6.7 °F 1.6 °F 1011.7 in NNW 31.5 mph 31.5 mph 70 % 0.0 in 302.0 W/m2 CLR
09:50 6.7 °F 1.4 °F 1011.7 in North 31.5 mph 31.5 mph 69 % 0.0 in 316.0 W/m2 CLR
09:55 6.7 °F 1.2 °F 1011.7 in NW 27.8 mph 27.8 mph 68 % 0.0 in 334.0 W/m2 CLR
10:00 7.2 °F 1.5 °F 1011.7 in NNW 40.7 mph 40.7 mph 67 % 0.0 in 346.0 W/m2 CLR
10:05 7.2 °F 1.5 °F 1011.7 in NNW 31.5 mph 31.5 mph 67 % 0.0 in 360.0 W/m2 CLR
10:10 7.2 °F 1.3 °F 1011.7 in NW 29.6 mph 29.6 mph 66 % 0.0 in 373.0 W/m2 CLR
10:15 7.8 °F 1.8 °F 1011.7 in NNW 31.5 mph 31.5 mph 66 % 0.0 in 387.0 W/m2 CLR
10:20 7.8 °F 1.6 °F 1011.7 in NW 38.9 mph 38.9 mph 65 % 0.0 in 399.0 W/m2 CLR
10:25 7.8 °F 1.6 °F 1011.4 in NW 25.9 mph 25.9 mph 65 % 0.0 in 410.0 W/m2 CLR
10:30 7.8 °F 1.6 °F 1011.7 in NW 25.7 mph 25.7 mph 65 % 0.0 in 424.0 W/m2 CLR
10:35 7.8 °F 1.4 °F 1011.7 in North 27.8 mph 27.8 mph 64 % 0.0 in 438.0 W/m2 CLR
10:40 8.3 °F 1.9 °F 1011.4 in NW 33.3 mph 33.3 mph 64 % 0.0 in 450.0 W/m2 CLR
10:45 8.3 °F 1.9 °F 1011.7 in NNW 29.6 mph 29.6 mph 64 % 0.0 in 462.0 W/m2 CLR
10:50 8.3 °F 1.7 °F 1011.4 in NNW 31.5 mph 31.5 mph 63 % 0.0 in 473.0 W/m2 CLR
10:55 8.9 °F 2.0 °F 1011.7 in NW 31.5 mph 31.5 mph 62 % 0.0 in 489.0 W/m2 CLR
11:00 8.9 °F 2.0 °F 1011.7 in NNW 29.6 mph 29.6 mph 62 % 0.0 in 499.0 W/m2 CLR
11:05 8.9 °F 2.0 °F 1011.7 in NW 31.5 mph 31.5 mph 62 % 0.0 in 506.0 W/m2 CLR
11:10 9.4 °F 2.5 °F 1011.7 in NNW 37.0 mph 37.0 mph 62 % 0.0 in 515.0 W/m2 CLR
11:15 9.4 °F 2.3 °F 1012.1 in NNW 42.6 mph 42.6 mph 61 % 0.0 in 527.0 W/m2 CLR
11:20 10.0 °F 3.1 °F 1011.7 in North 25.9 mph 25.9 mph 62 % 0.0 in 538.0 W/m2 CLR
11:25 10.0 °F 2.6 °F 1011.7 in NNW 24.1 mph 24.1 mph 60 % 0.0 in 547.0 W/m2 CLR
11:30 10.0 °F 2.3 °F 1011.7 in NW 31.5 mph 31.5 mph 59 % 0.0 in 555.0 W/m2 CLR
11:35 10.0 °F 2.3 °F 1011.7 in NW 33.3 mph 33.3 mph 59 % 0.0 in 561.0 W/m2 CLR
11:40 10.0 °F 2.3 °F 1011.7 in NW 22.2 mph 22.2 mph 59 % 0.0 in 573.0 W/m2 CLR
11:45 10.0 °F 2.1 °F 1011.7 in NW 27.4 mph 27.4 mph 58 % 0.0 in 580.0 W/m2 CLR
11:50 10.6 °F 2.6 °F 1011.7 in NW 31.5 mph 31.5 mph 58 % 0.0 in 585.0 W/m2 CLR
11:55 10.6 °F 2.6 °F 1011.7 in North 25.9 mph 25.9 mph 58 % 0.0 in 591.0 W/m2 CLR
12:00 10.6 °F 2.6 °F 1011.7 in North 31.5 mph 31.5 mph 58 % 0.0 in 598.0 W/m2 CLR
12:05 10.6 °F 2.4 °F 1011.7 in NW 25.7 mph 25.7 mph 57 % 0.0 in 606.0 W/m2 CLR
12:10 10.6 °F 2.4 °F 1011.4 in NNW 25.9 mph 25.9 mph 57 % 0.0 in 613.0 W/m2 CLR
12:15 10.6 °F 2.4 °F 1011.4 in NW 29.0 mph 29.0 mph 57 % 0.0 in 615.0 W/m2 CLR
12:20 11.1 °F 2.7 °F 1011.4 in North 33.3 mph 33.3 mph 56 % 0.0 in 621.0 W/m2 CLR
12:25 11.1 °F 2.7 °F 1011.4 in NNW 29.6 mph 29.6 mph 56 % 0.0 in 624.0 W/m2 CLR
12:30 11.1 °F 2.4 °F 1011.4 in NNW 38.9 mph 38.9 mph 55 % 0.0 in 631.0 W/m2 CLR
12:35 11.7 °F 2.9 °F 1011.4 in NNW 33.3 mph 33.3 mph 55 % 0.0 in 631.0 W/m2 CLR
12:40 11.7 °F 2.7 °F 1011.4 in NNW 33.3 mph 33.3 mph 54 % 0.0 in 638.0 W/m2 CLR
12:45 11.7 °F 2.7 °F 1011.1 in NNW 31.5 mph 31.5 mph 54 % 0.0 in 643.0 W/m2 CLR
12:50 11.7 °F 2.7 °F 1011.1 in NW 29.6 mph 29.6 mph 54 % 0.0 in 647.0 W/m2 CLR
12:55 12.2 °F 2.9 °F 1011.1 in NW 29.6 mph 29.6 mph 53 % 0.0 in 575.0 W/m2 CLR
13:00 12.2 °F 3.2 °F 1011.1 in NW 31.5 mph 31.5 mph 54 % 0.0 in 650.0 W/m2 CLR
13:05 12.2 °F 3.2 °F 1011.1 in WNW 27.8 mph 27.8 mph 54 % 0.0 in 659.0 W/m2 CLR
13:10 12.2 °F 2.9 °F 1011.1 in NNW 29.6 mph 29.6 mph 53 % 0.0 in 675.0 W/m2 CLR
13:15 12.8 °F 2.9 °F 1011.1 in NNW 24.1 mph 24.1 mph 51 % 0.0 in 671.0 W/m2 CLR
13:20 12.8 °F 3.2 °F 1010.7 in NW 18.5 mph 18.5 mph 52 % 0.0 in 675.0 W/m2 CLR
13:25 12.8 °F 2.9 °F 1010.7 in North 32.2 mph 32.2 mph 51 % 0.0 in 670.0 W/m2 CLR
13:30 12.8 °F 2.9 °F 1010.7 in NNW 25.9 mph 25.9 mph 51 % 0.0 in 661.0 W/m2 CLR
13:35 12.8 °F 2.9 °F 1010.7 in North 33.3 mph 33.3 mph 51 % 0.0 in 682.0 W/m2 CLR
13:40 12.8 °F 2.3 °F 1010.7 in NW 31.5 mph 31.5 mph 49 % 0.0 in 708.0 W/m2 CLR
13:45 13.3 °F 2.8 °F 1010.7 in NNW 35.2 mph 35.2 mph 49 % 0.0 in 619.0 W/m2 CLR
13:50 12.8 °F 2.3 °F 1010.7 in North 27.8 mph 27.8 mph 49 % 0.0 in 666.0 W/m2 CLR
13:55 13.3 °F 2.8 °F 1010.4 in NNW 31.5 mph 31.5 mph 49 % 0.0 in 643.0 W/m2 CLR
14:00 13.3 °F 2.2 °F 1010.4 in NNW 27.8 mph 27.8 mph 47 % 0.0 in 624.0 W/m2 CLR
14:05 13.3 °F 2.6 °F 1010.4 in North 33.8 mph 33.8 mph 48 % 0.0 in 631.0 W/m2 CLR
14:10 13.3 °F 2.2 °F 1010.0 in North 25.7 mph 25.7 mph 47 % 0.0 in 596.0 W/m2 CLR
14:15 13.9 °F 2.8 °F 1010.0 in NNW 25.9 mph 25.9 mph 47 % 0.0 in 642.0 W/m2 CLR
14:20 13.3 °F 2.2 °F 1010.0 in NNW 30.6 mph 30.6 mph 47 % 0.0 in 650.0 W/m2 CLR
14:30 13.3 °F 1.9 °F 1010.0 in NW 27.8 mph 27.8 mph 46 % 0.0 in 596.0 W/m2 CLR
14:35 13.3 °F 1.9 °F 1009.7 in NNW 22.5 mph 22.5 mph 46 % 0.0 in 617.0 W/m2 CLR
14:41 13.9 °F 3.1 °F 1009.7 in NW 25.9 mph 25.9 mph 48 % 0.0 in 601.0 W/m2 CLR
14:46 13.9 °F 1.8 °F 1009.7 in North 33.3 mph 33.3 mph 44 % 0.0 in 617.0 W/m2 CLR
14:51 13.3 °F 1.6 °F 1009.4 in North 35.2 mph 35.2 mph 45 % 0.0 in 628.0 W/m2 CLR
14:56 13.9 °F 1.8 °F 1009.4 in North 25.9 mph 25.9 mph 44 % 0.0 in 621.0 W/m2 CLR
15:01 13.3 °F 1.3 °F 1009.4 in NNW 33.8 mph 33.8 mph 44 % 0.0 in 464.0 W/m2 CLR
15:06 13.3 °F 1.6 °F 1009.4 in NNW 29.6 mph 29.6 mph 45 % 0.0 in 473.0 W/m2 CLR
15:11 13.3 °F 1.6 °F 1009.4 in NW 24.1 mph 24.1 mph 45 % 0.0 in 383.0 W/m2 CLR
15:16 13.3 °F 1.6 °F 1009.4 in NW 33.3 mph 33.3 mph 45 % 0.0 in 360.0 W/m2 CLR
15:21 13.3 °F 2.2 °F 1009.4 in NNW 38.6 mph 38.6 mph 47 % 0.0 in 357.0 W/m2 CLR
15:26 12.8 °F 2.1 °F 1009.4 in NNW 33.8 mph 33.8 mph 48 % 0.0 in 396.0 W/m2 CLR
15:31 12.2 °F 1.8 °F 1009.4 in NNW 30.6 mph 30.6 mph 49 % 0.0 in 404.0 W/m2 CLR
15:36 12.2 °F 1.8 °F 1009.4 in NW 33.3 mph 33.3 mph 49 % 0.0 in 211.0 W/m2 CLR
15:41 11.7 °F 1.6 °F 1009.7 in North 40.7 mph 40.7 mph 50 % 0.0 in 218.0 W/m2 CLR
15:46 11.7 °F 1.6 °F 1009.7 in North 44.4 mph 44.4 mph 50 % 0.0 in 244.0 W/m2 CLR
15:51 11.7 °F 1.6 °F 1009.7 in NNW 33.3 mph 33.3 mph 50 % 0.0 in 302.0 W/m2 CLR
15:56 11.7 °F 1.6 °F 1009.7 in NNW 33.8 mph 33.8 mph 50 % 0.0 in 251.0 W/m2 CLR
16:01 11.1 °F 1.1 °F 1009.7 in NNW 31.5 mph 31.5 mph 50 % 0.0 in 202.0 W/m2 CLR
16:06 11.1 °F 0.8 °F 1010.0 in NNW 38.9 mph 38.9 mph 49 % 0.0 in 200.0 W/m2 CLR
16:11 11.1 °F 1.1 °F 1009.7 in NW 35.2 mph 35.2 mph 50 % 0.0 in 218.0 W/m2 CLR
16:16 11.1 °F 1.1 °F 1009.7 in NW 31.5 mph 31.5 mph 50 % 0.0 in 223.0 W/m2 CLR
16:21 11.1 °F 0.8 °F 1009.7 in NNW 31.5 mph 31.5 mph 49 % 0.0 in 237.0 W/m2 CLR
16:26 11.1 °F 1.1 °F 1009.7 in NNW 31.5 mph 31.5 mph 50 % 0.0 in 225.0 W/m2 CLR
16:31 11.1 °F 0.8 °F 1009.7 in NW 31.5 mph 31.5 mph 49 % 0.0 in 232.0 W/m2 CLR
16:37 11.1 °F 0.2 °F 1009.7 in NNW 29.6 mph 29.6 mph 47 % 0.0 in 188.0 W/m2 CLR
16:42 11.1 °F 0.5 °F 1009.7 in NNW 31.5 mph 31.5 mph 48 % 0.0 in 209.0 W/m2 CLR
16:47 11.1 °F 0.2 °F 1009.7 in North 33.3 mph 33.3 mph 47 % 0.0 in 190.0 W/m2 CLR
16:52 11.1 °F 0.2 °F 1009.7 in NNW 29.6 mph 29.6 mph 47 % 0.0 in 141.0 W/m2 CLR
16:57 11.1 °F 0.2 °F 1009.7 in NNW 22.2 mph 22.2 mph 47 % 0.0 in 109.0 W/m2 CLR
17:02 10.6 °F -0.3 °F 1009.7 in NNW 24.1 mph 24.1 mph 47 % 0.0 in 179.0 W/m2 CLR
17:07 11.1 °F -0.1 °F 1009.7 in North 25.9 mph 25.9 mph 46 % 0.0 in 171.0 W/m2 CLR
17:12 10.6 °F -0.9 °F 1009.7 in NNW 29.6 mph 29.6 mph 45 % 0.0 in 102.0 W/m2 CLR
17:17 10.6 °F -0.6 °F 1009.7 in NW 24.1 mph 24.1 mph 46 % 0.0 in 88.0 W/m2 CLR
17:22 10.6 °F -0.6 °F 1009.7 in NW 25.9 mph 25.9 mph 46 % 0.0 in 81.0 W/m2 CLR
17:27 10.0 °F -1.1 °F 1009.7 in NNW 27.8 mph 27.8 mph 46 % 0.0 in 70.0 W/m2 FEW
17:32 10.0 °F -1.1 °F 1009.7 in NW 18.5 mph 18.5 mph 46 % 0.0 in 54.0 W/m2 FEW
17:37 10.0 °F -1.1 °F 1009.7 in NW 25.9 mph 25.9 mph 46 % 0.0 in 67.0 W/m2 SCT
17:42 9.4 °F -1.9 °F 1009.7 in NNW 25.9 mph 25.9 mph 45 % 0.0 in 53.0 W/m2 SCT
17:47 9.4 °F -1.9 °F 1009.7 in NW 24.1 mph 24.1 mph 45 % 0.0 in 49.0 W/m2 SCT
17:52 9.4 °F -1.9 °F 1009.7 in NW 22.5 mph 22.5 mph 45 % 0.0 in 81.0 W/m2 FEW
17:57 9.4 °F -1.9 °F 1009.7 in NW 18.5 mph 18.5 mph 45 % 0.0 in 62.0 W/m2 SCT
18:02 9.4 °F -1.9 °F 1010.0 in NNW 19.3 mph 19.3 mph 45 % 0.0 in 46.0 W/m2 SCT
18:07 9.4 °F -1.9 °F 1009.7 in NW 20.4 mph 20.4 mph 45 % 0.0 in 46.0 W/m2 SCT
18:12 9.4 °F -2.2 °F 1010.0 in NW 25.9 mph 25.9 mph 44 % 0.0 in 37.0 W/m2 BKN
18:17 8.9 °F -2.4 °F 1010.0 in NW 24.1 mph 24.1 mph 45 % 0.0 in 30.0 W/m2 BKN
18:22 8.9 °F -2.4 °F 1010.0 in NNW 31.5 mph 31.5 mph 45 % 0.0 in 25.0 W/m2 BKN
18:27 8.9 °F -2.7 °F 1010.0 in NW 31.5 mph 31.5 mph 44 % 0.0 in 18.0 W/m2 BKN
18:32 8.9 °F -2.7 °F 1010.0 in NNW 22.2 mph 22.2 mph 44 % 0.0 in 12.0 W/m2 BKN
18:37 8.9 °F -2.4 °F 1010.0 in NW 27.8 mph 27.8 mph 45 % 0.0 in 7.0 W/m2 BKN
18:42 8.9 °F -2.4 °F 1010.0 in NNW 30.6 mph 30.6 mph 45 % 0.0 in 0.0 W/m2 OVC
18:47 8.3 °F -3.2 °F 1010.4 in NNW 35.2 mph 35.2 mph 44 % 0.0 in 0.0 W/m2 OVC
18:52 8.3 °F -3.2 °F 1010.4 in NW 29.0 mph 29.0 mph 44 % 0.0 in 0.0 W/m2 CLR
18:57 8.3 °F -3.2 °F 1010.4 in NW 31.5 mph 31.5 mph 44 % 0.0 in 0.0 W/m2 CLR
19:02 8.3 °F -3.2 °F 1010.4 in North 25.7 mph 25.7 mph 44 % 0.0 in 0.0 W/m2 CLR
19:07 7.8 °F -3.7 °F 1010.4 in NW 24.1 mph 24.1 mph 44 % 0.0 in 0.0 W/m2 CLR
19:12 7.8 °F -3.7 °F 1010.4 in NW 31.5 mph 31.5 mph 44 % 0.0 in 0.0 W/m2 CLR
19:17 7.8 °F -3.7 °F 1010.7 in NW 37.0 mph 37.0 mph 44 % 0.0 in 0.0 W/m2 CLR
19:22 7.8 °F -3.4 °F 1010.7 in NW 31.5 mph 31.5 mph 45 % 0.0 in 0.0 W/m2 CLR
19:27 7.8 °F -3.4 °F 1010.7 in NW 31.5 mph 31.5 mph 45 % 0.0 in 0.0 W/m2 CLR
19:32 7.2 °F -3.9 °F 1010.7 in NW 31.5 mph 31.5 mph 45 % 0.0 in 0.0 W/m2 CLR
19:37 7.2 °F -3.7 °F 1010.7 in NW 35.2 mph 35.2 mph 46 % 0.0 in 0.0 W/m2 CLR
19:42 7.2 °F -3.7 °F 1010.7 in North 29.6 mph 29.6 mph 46 % 0.0 in 0.0 W/m2 CLR
19:47 7.2 °F -3.7 °F 1010.7 in NNW 31.5 mph 31.5 mph 46 % 0.0 in 0.0 W/m2 CLR
19:52 6.7 °F -4.2 °F 1011.1 in NNW 29.6 mph 29.6 mph 46 % 0.0 in 0.0 W/m2 CLR
19:57 6.7 °F -3.9 °F 1011.1 in NNW 31.5 mph 31.5 mph 47 % 0.0 in 0.0 W/m2 CLR
20:02 6.7 °F -3.9 °F 1011.1 in NNW 33.3 mph 33.3 mph 47 % 0.0 in 0.0 W/m2 CLR
20:07 6.7 °F -3.9 °F 1011.1 in NW 29.6 mph 29.6 mph 47 % 0.0 in 0.0 W/m2 CLR
20:12 6.1 °F -4.4 °F 1011.1 in NW 37.0 mph 37.0 mph 47 % 0.0 in 0.0 W/m2 CLR
20:17 6.1 °F -4.1 °F 1011.1 in NNW 38.9 mph 38.9 mph 48 % 0.0 in 0.0 W/m2 CLR
20:22 6.1 °F -4.1 °F 1011.1 in NW 29.6 mph 29.6 mph 48 % 0.0 in 0.0 W/m2 CLR
20:27 6.1 °F -4.1 °F 1011.4 in NNW 31.5 mph 31.5 mph 48 % 0.0 in 0.0 W/m2 CLR
20:32 6.1 °F -3.8 °F 1011.4 in NW 31.5 mph 31.5 mph 49 % 0.0 in 0.0 W/m2 CLR
20:37 6.1 °F -3.8 °F 1011.4 in NNW 29.6 mph 29.6 mph 49 % 0.0 in 0.0 W/m2 CLR
20:42 5.6 °F -4.3 °F 1011.7 in NW 31.5 mph 31.5 mph 49 % 0.0 in 0.0 W/m2 CLR
20:47 5.6 °F -4.3 °F 1011.7 in NNW 33.3 mph 33.3 mph 49 % 0.0 in 0.0 W/m2 CLR
20:52 5.6 °F -4.1 °F 1011.7 in North 33.8 mph 33.8 mph 50 % 0.0 in 0.0 W/m2 CLR
20:57 5.6 °F -3.8 °F 1011.7 in NNW 35.4 mph 35.4 mph 51 % 0.0 in 0.0 W/m2 CLR
21:02 5.6 °F -3.8 °F 1011.7 in NW 27.8 mph 27.8 mph 51 % 0.0 in 0.0 W/m2 CLR
21:07 5.6 °F -3.8 °F 1011.7 in NW 37.0 mph 37.0 mph 51 % 0.0 in 0.0 W/m2 CLR
21:12 5.0 °F -4.3 °F 1011.7 in NNW 24.1 mph 24.1 mph 51 % 0.0 in 0.0 W/m2 CLR
21:17 5.0 °F -4.1 °F 1011.7 in NNW 35.2 mph 35.2 mph 52 % 0.0 in 0.0 W/m2 CLR
21:22 5.0 °F -4.1 °F 1011.7 in NW 38.6 mph 38.6 mph 52 % 0.0 in 0.0 W/m2 CLR
21:27 5.0 °F -4.1 °F 1011.7 in NNW 37.0 mph 37.0 mph 52 % 0.0 in 0.0 W/m2 CLR
21:32 5.0 °F -3.8 °F 1012.1 in NNW 31.5 mph 31.5 mph 53 % 0.0 in 0.0 W/m2 CLR
21:37 5.0 °F -3.8 °F 1012.1 in NW 35.2 mph 35.2 mph 53 % 0.0 in 0.0 W/m2 CLR
21:42 5.0 °F -3.8 °F 1012.1 in NNW 31.5 mph 31.5 mph 53 % 0.0 in 0.0 W/m2 CLR
21:47 5.0 °F -3.6 °F 1012.1 in NNW 33.3 mph 33.3 mph 54 % 0.0 in 0.0 W/m2 CLR
21:52 5.0 °F -3.6 °F 1012.1 in North 38.9 mph 38.9 mph 54 % 0.0 in 0.0 W/m2 CLR
21:57 5.0 °F -3.6 °F 1012.1 in NW 29.6 mph 29.6 mph 54 % 0.0 in 0.0 W/m2 CLR
22:02 5.0 °F -3.3 °F 1012.1 in NNW 31.5 mph 31.5 mph 55 % 0.0 in 0.0 W/m2 CLR
22:07 5.0 °F -3.3 °F 1012.4 in NNW 35.2 mph 35.2 mph 55 % 0.0 in 0.0 W/m2 CLR
22:12 4.4 °F -3.6 °F 1012.4 in NNW 32.2 mph 32.2 mph 56 % 0.0 in 0.0 W/m2 CLR
22:18 4.4 °F -3.3 °F 1012.4 in NNW 48.1 mph 48.1 mph 57 % 0.0 in 0.0 W/m2 CLR
22:23 4.4 °F -3.3 °F 1012.4 in NNW 31.5 mph 31.5 mph 57 % 0.0 in 0.0 W/m2 CLR
22:28 4.4 °F -3.1 °F 1012.4 in NW 38.9 mph 38.9 mph 58 % 0.0 in 0.0 W/m2 CLR
22:33 4.4 °F -2.9 °F 1012.4 in NW 35.2 mph 35.2 mph 59 % 0.0 in 0.0 W/m2 CLR
22:38 4.4 °F -2.7 °F 1012.4 in NW 40.7 mph 40.7 mph 60 % 0.0 in 0.0 W/m2 CLR
22:43 4.4 °F -2.7 °F 1012.4 in NW 35.2 mph 35.2 mph 60 % 0.0 in 0.0 W/m2 CLR
22:48 4.4 °F -2.4 °F 1012.4 in NW 40.7 mph 40.7 mph 61 % 0.0 in 0.0 W/m2 CLR
22:53 4.4 °F -2.4 °F 1012.4 in NW 31.5 mph 31.5 mph 61 % 0.0 in 0.0 W/m2 CLR
22:58 3.9 °F -2.9 °F 1012.4 in NW 38.9 mph 38.9 mph 61 % 0.0 in 0.0 W/m2 CLR
23:03 3.9 °F -2.7 °F 1012.4 in NNW 31.5 mph 31.5 mph 62 % 0.0 in 0.0 W/m2 CLR
23:08 3.9 °F -2.7 °F 1012.4 in NW 38.6 mph 38.6 mph 62 % 0.0 in 0.0 W/m2 CLR
23:13 3.9 °F -2.7 °F 1012.4 in NW 33.3 mph 33.3 mph 62 % 0.0 in 0.0 W/m2 CLR
23:18 3.9 °F -2.5 °F 1012.8 in NNW 35.2 mph 35.2 mph 63 % 0.0 in 0.0 W/m2 CLR
23:23 3.9 °F -2.5 °F 1012.4 in NW 33.3 mph 33.3 mph 63 % 0.0 in 0.0 W/m2 CLR
23:28 3.9 °F -2.5 °F 1012.4 in NW 27.8 mph 27.8 mph 63 % 0.0 in 0.0 W/m2 CLR
23:33 3.9 °F -2.3 °F 1012.4 in NW 29.6 mph 29.6 mph 64 % 0.0 in 0.0 W/m2 CLR
23:38 3.9 °F -2.3 °F 1012.8 in NW 29.6 mph 29.6 mph 64 % 0.0 in 0.0 W/m2 CLR
23:43 3.9 °F -2.3 °F 1012.8 in NW 31.5 mph 31.5 mph 64 % 0.0 in 0.0 W/m2 CLR
23:48 3.3 °F -2.8 °F 1012.8 in NW 24.1 mph 24.1 mph 64 % 0.0 in 0.0 W/m2 CLR
23:53 3.3 °F -2.8 °F 1012.8 in NW 31.5 mph 31.5 mph 64 % 0.0 in 0.0 W/m2 CLR
23:58 3.3 °F -2.8 °F 1012.8 in NW 24.1 mph 24.1 mph 64 % 0.0 in 0.0 W/m2 CLR
Lo Temps de Massalio
Compliments of Weather Underground - 1.25 mb